OIZJ 
Jask Airport
Jask, Iran 
ICAOStatus
OIZJOperational
LatitudeLongitude
25° 39' 12" N57° 47' 57" E
25.65360157.799301
Local Time (DST+5)UTC (GMT+4)
04-24-2014 06:35 am04-24-2014 02:05
Sunrise-SunsetLocalUTC
Begin Civil Twilight05:42 am01:12
Sunrise06:06 am01:36
Sunset07:07 pm14:37
End Civil Twilight07:31 pm15:01

Current Weather

METARObservedFlight Conditions

OIZJ 240000Z 00000KT 5000 BR SKC 27/26 Q1009

Thu, Apr 24, 2014 @ 00:00 UTC(Z)

(2 Hours, 5 Minutes ago)

MVFR

(Marginal Visual Flight Rules)

WindVisibilityCloudsConditions
Calm
5000 meters
  • Clear skies
  • Mist
TemperaturesReadingsPrecipitation
Current Temp27°C (81°F)
Dewpoint26°C (79°F)
Heat Index32°C (89°F)
Humidity94%
Altimeter29.79"Hg
Sea Level Pressure1009mb
Field Elevation13.12'
None Recorded

Additional weather within a 185.2km radius of OIZJ

Location METAR
OMFJ

159.8km W (248°)

1 hour, 5 minutes ago
VFR VFR    MVFR MVFR    IFR IFR    LIFR LIFR    Unknown Unknown

Previous 24 hour Weather Graphs

  Loading...

CheckWX.com is intended as a tool to help pilots better visualize weather data.   It is not intended as a substitute for an official weather briefing obtained from a Flight Service Station.
CheckWX.com does not meet the FAA requirements for an official pre-flight weather briefing.   Therefore, it's important that pilots still call and obtain an official FSS pre-flight weather briefing.